Aviation Digital Data Service (ADDS)

Output produced by METARs form (0052 UTC 16 September 2014)
found at http://aviationweather.gov/adds/metars/
 
KHUL 152320Z 1600/1624 27004KT P6SM BKN060 
     FM161100 20005KT P6SM -SHRA OVC008 
     FM161500 21007KT 3SM -SHRA OVC015 
     FM161800 22007KT P6SM OVC035